Flight Track Log - Related Links

Times and Time Zones

All times are in EDT time to prevent confusion due to time zone crossing. See the UAL3835 flight status page for this flight to view local times or setup timezone preferences in your user account.

Time Position Orientation Groundspeed Altitude Reporting Facility
EDT Latitude Longitude Course Direction KTS MPH feet Rate Location/Type
Tue 07:16:22 PM 38.2500 -85.7500 99° East 187 215 3,300  Level Louisville TRACON
Tue 07:17:16 PM 38.2808 -85.7136 43° Northeast 265 305 4,300 1,707 Climbing Indianapolis Center
Tue 07:18:00 PM 38.0667 -85.3285 90° East  Level FlightAware Approximate
Tue 07:18:18 PM 38.2847 -85.6314 87° East 260 299 6,600  Level Indianapolis Center
Tue 07:19:00 PM 38.0536 -85.2114 103° East  Level FlightAware Approximate
Tue 07:19:20 PM 38.2133 -85.5569 141° Southeast 275 316 9,300  Level Indianapolis Center
Tue 07:20:00 PM 38.0333 -85.0953 90° East  Level FlightAware Approximate
Tue 07:20:22 PM 38.1500 -85.4939 142° Southeast 285 328 11,000  Level Indianapolis Center
Tue 07:21:00 PM 38.0182 -84.9622 99° East  Level FlightAware Approximate
Tue 07:21:24 PM 38.0897 -85.4128 133° Southeast 313 360 12,100  Level Indianapolis Center
Tue 07:22:26 PM 38.0728 -85.2953 100° East 338 389 13,100 1,258 Climbing Indianapolis Center
Tue 07:23:28 PM 38.0542 -85.1622 100° East 345 397 14,700 1,500 Climbing Indianapolis Center
Tue 07:24:30 PM 38.0386 -85.0408 99° East 346 398 16,200 1,452 Climbing Indianapolis Center
Tue 07:25:32 PM 38.0239 -84.9211 99° East 344 396 17,700 1,403 Climbing Indianapolis Center
Tue 07:26:34 PM 38.0078 -84.8031 100° East 339 390 19,100 1,403 Climbing Indianapolis Center
Tue 07:27:36 PM 37.9925 -84.6806 99° East 348 400 20,600 1,500 Climbing Indianapolis Center
Tue 07:28:38 PM 37.9750 -84.5375 99° East 351 404 22,200 1,161 Climbing Indianapolis Center
Tue 07:29:40 PM 37.9631 -84.4117 97° East 358 412 23,000 387 Climbing Indianapolis Center
Tue 07:30:42 PM 37.9586 -84.2758 92° East 382 440 23,000 145 Level Indianapolis Center
Tue 07:31:44 PM 37.9514 -84.1303 94° East 406 467 23,300 732 Climbing Indianapolis Center
Tue 07:32:45 PM 37.9456 -83.9875 93° East 408 470 24,500 1,171 Climbing Indianapolis Center
Tue 07:33:47 PM 37.9386 -83.8483 94° East 397 457 25,700 1,210 Climbing Indianapolis Center
Tue 07:34:49 PM 37.9333 -83.7122 93° East 387 445 27,000 1,306 Climbing Indianapolis Center
Tue 07:35:51 PM 37.9250 -83.5586 94° East 376 433 28,400 1,258 Climbing Indianapolis Center
Tue 07:36:53 PM 37.9192 -83.4339 93° East 359 413 29,600 1,220 Climbing Indianapolis Center
Tue 07:37:54 PM 37.9128 -83.3089 94° East 354 407 30,900 1,220 Climbing Indianapolis Center
Tue 07:38:56 PM 37.9064 -83.1861 94° East 350 403 32,100 1,161 Climbing Indianapolis Center
Tue 07:39:58 PM 37.9000 -83.0644 94° East 346 398 33,300 1,073 Climbing Indianapolis Center
Tue 07:40:59 PM 37.8928 -82.9422 94° East 348 400 34,300 829 Climbing Indianapolis Center
Tue 07:42:01 PM 37.8875 -82.8242 93° East 340 391 35,000 339 Climbing Indianapolis Center
Tue 07:43:03 PM 37.8783 -82.6775 94° East 354 407 35,000  Level Indianapolis Center
Tue 07:44:04 PM 37.8711 -82.5394 94° East 385 443 35,000  Level Indianapolis Center
Tue 07:45:06 PM 37.8631 -82.3958 94° East 404 465 35,000  Level Indianapolis Center
Tue 07:46:08 PM 37.8544 -82.2458 94° East 422 486 35,000  Level Indianapolis Center
Tue 07:47:10 PM 37.8469 -82.1075 94° East 425 489 35,000  Level Indianapolis Center
Tue 07:48:11 PM 37.8361 -81.9447 95° East 429 494 35,000  Level Indianapolis Center
Tue 07:49:13 PM 37.8261 -81.8003 95° East 413 475 35,000  Level Indianapolis Center
Tue 07:50:15 PM 37.8175 -81.6608 94° East 399 459 35,000  Level Indianapolis Center
Tue 07:51:17 PM 37.8064 -81.4953 95° East 402 463 35,000  Level Indianapolis Center
Tue 07:52:18 PM 37.7967 -81.3678 95° East 404 465 35,000  Level Indianapolis Center
Tue 07:53:09 PM 37.7878 -81.2392 95° East 392 451 35,000  Level Washington Center
Tue 07:54:09 PM 37.7819 -81.0942 93° East 390 449 35,000  Level Washington Center
Tue 07:55:10 PM 37.7908 -80.9475 86° East 395 455 35,000  Level Washington Center
Tue 07:56:08 PM 37.8014 -80.8011 85° East 407 468 35,000  Level Washington Center
Tue 07:57:08 PM 37.8094 -80.6650 86° East 427 491 35,000  Level Washington Center
Tue 07:58:09 PM 37.8219 -80.5158 84° East 427 491 35,000  Level Washington Center
Tue 07:59:10 PM 37.8300 -80.3692 86° East 420 483 35,000  Level Washington Center
Tue 08:00:08 PM 37.8378 -80.2250 86° East 415 478 35,000  Level Washington Center
Tue 08:01:09 PM 37.8475 -80.0783 85° East 415 478 35,000  Level Washington Center
Tue 08:02:10 PM 37.8597 -79.9108 85° East 424 488 35,000  Level Washington Center
Tue 08:03:08 PM 37.8675 -79.7558 86° East 430 495 35,000  Level Washington Center
Tue 08:04:08 PM 37.8767 -79.6039 86° East 430 495 35,000  Level Washington Center
Tue 08:05:09 PM 37.8861 -79.4464 86° East 436 502 35,000  Level Washington Center
Tue 08:06:10 PM 37.8950 -79.2942 86° East 442 509 35,000  Level Washington Center
Tue 08:07:10 PM 37.9011 -79.1656 87° East 420 483 35,000  Level Washington Center
Tue 08:08:10 PM 37.9156 -79.0269 82° East 406 467 35,000 508 Level Washington Center
Tue 08:09:08 PM 37.9297 -78.8906 82° East 401 461 36,000 908 Climbing Washington Center
Tue 08:10:09 PM 37.9458 -78.7569 81° East 396 456 36,800 500 Climbing Washington Center
Tue 08:11:08 PM 37.9619 -78.6181 82° East 390 449 37,000 101 Climbing Washington Center
Tue 08:12:08 PM 37.9825 -78.4608 81° East 395 455 37,000  Level Washington Center
Tue 08:13:09 PM 38.0006 -78.3111 81° East 410 472 37,000  Level Washington Center
Tue 08:14:10 PM 38.0142 -78.1719 83° East 428 493 37,000  Level Washington Center
Tue 08:15:10 PM 38.0753 -78.0369 60° Northeast 422 486 37,000  Level Washington Center
Tue 08:16:10 PM 38.1386 -77.9044 59° Northeast 427 491 37,000  Level Washington Center
Tue 08:17:08 PM 38.2056 -77.7744 57° Northeast 432 497 37,000  Level Washington Center
Tue 08:18:08 PM 38.2683 -77.6467 58° Northeast 432 497 37,000  Level Washington Center
Tue 08:19:09 PM 38.3286 -77.5239 58° Northeast 419 482 37,000  Level Washington Center
Tue 08:20:09 PM 38.3892 -77.3956 59° Northeast 419 482 37,000  Level Washington Center
Tue 08:21:08 PM 38.4514 -77.2700 58° Northeast 419 482 37,000  Level Washington Center
Tue 08:22:08 PM 38.5156 -77.1386 58° Northeast 424 488 37,000  Level Washington Center
Tue 08:23:09 PM 38.5778 -77.0072 59° Northeast 424 488 37,000  Level Washington Center
Tue 08:24:09 PM 38.6397 -76.8756 59° Northeast 424 488 37,000  Level Washington Center
Tue 08:25:09 PM 38.7056 -76.7461 57° Northeast 424 488 37,000 -397 Level Washington Center
Tue 08:26:10 PM 38.7961 -76.6383 43° Northeast 429 494 36,200 -843 Descending Washington Center
Tue 08:27:10 PM 38.8867 -76.5358 41° Northeast 429 494 35,300 -1,017 Descending Washington Center
Tue 08:28:08 PM 38.9728 -76.4381 41° Northeast 423 487 34,200 -1,613 Descending Washington Center
Tue 08:29:09 PM 39.0528 -76.3453 42° Northeast 408 470 32,100 -2,213 Descending Washington Center
Tue 08:30:10 PM 39.1303 -76.2525 43° Northeast 385 443 29,700 -2,430 Descending Washington Center
Tue 08:31:10 PM 39.2206 -76.1517 41° Northeast 373 429 27,200 -1,350 Descending Washington Center
Tue 08:32:10 PM 39.3000 -76.0583 42° Northeast 384 442 27,000 -102 Descending Washington Center
Tue 08:33:08 PM 39.3756 -75.9700 42° Northeast 389 448 27,000  Level Washington Center
Tue 08:34:08 PM 39.4611 -75.8658 43° Northeast 399 459 27,000 -645 Level Washington Center
Tue 08:35:09 PM 39.5531 -75.7611 41° Northeast 412 474 25,700 -1,820 Descending Washington Center
Tue 08:36:10 PM 39.6447 -75.6508 43° Northeast 427 491 23,300 -2,400 Descending Washington Center
Tue 08:37:09 PM 39.7344 -75.5456 42° Northeast 434 499 20,900 -2,250 Descending Washington Center
Tue 08:38:10 PM 39.8178 -75.4431 43° Northeast 422 486 18,800 -1,983 Descending Washington Center
Tue 08:39:10 PM 39.8944 -75.3508 43° Northeast 395 455 16,900 -1,950 Descending Washington Center
Tue 08:40:10 PM 39.9672 -75.2639 42° Northeast 368 423 14,900 -2,085 Descending Washington Center
Tue 08:41:08 PM 40.0400 -75.1714 44° Northeast 363 418 12,800 -1,517 Descending Washington Center
Tue 08:43:04 PM 40.1833 -75.0000 42° Northeast 329 379 10,500 -1,298 Descending New York TRACON
Tue 08:43:59 PM 40.2333 -74.9333 45° Northeast 293 337 9,100 -1,252 Descending New York TRACON
Tue 08:44:59 PM 40.2833 -74.8500 52° Northeast 272 313 8,100 -900 Descending New York TRACON
Tue 08:45:59 PM 40.3333 -74.7833 45° Northeast 261 300 7,300 -950 Descending New York TRACON
Tue 08:46:59 PM 40.3833 -74.7167 45° Northeast 251 289 6,200 -600 Descending New York TRACON
Tue 08:47:59 PM 40.4333 -74.6667 37° Northeast 257 296 6,100 -100 Descending New York TRACON
Tue 08:48:59 PM 40.5167 -74.6500 North 271 312 6,000 -50 Descending New York TRACON
Tue 08:49:59 PM 40.5833 -74.6667 349° North 283 326 6,000  Level New York TRACON
Tue 08:50:59 PM 40.6667 -74.6833 351° North 286 329 6,000  Level New York TRACON
Tue 08:51:59 PM 40.7333 -74.6667 11° North 269 310 6,000  Level New York TRACON
Tue 08:52:59 PM 40.8000 -74.6167 30° Northeast 259 298 6,000  Level New York TRACON
Tue 08:53:59 PM 40.8500 -74.5667 37° Northeast 264 304 6,000  Level New York TRACON
Tue 08:54:59 PM 40.9167 -74.5167 30° Northeast 264 304 6,000 -450 Level New York TRACON
Tue 08:55:59 PM 40.9333 -74.4167 78° East 246 283 5,100 -500 Descending New York TRACON
Tue 08:56:59 PM 40.9500 -74.3333 75° East 246 283 5,000 -300 Descending New York TRACON
Tue 08:57:59 PM 40.9500 -74.2500 90° East 248 285 4,500 -500 Descending New York TRACON
Tue 08:58:59 PM 40.9167 -74.1833 123° Southeast 244 281 4,000 -600 Descending New York TRACON
Tue 08:59:59 PM 40.8667 -74.1000 128° Southeast 240 276 3,300 -600 Descending New York TRACON
Tue 09:00:59 PM 40.8167 -74.0833 166° South 195 224 2,800 -800 Descending New York TRACON
Tue 09:01:59 PM 40.7833 -74.1167 217° Southwest 167 192 1,700 -900 Descending New York TRACON
Tue 09:02:59 PM 40.7333 -74.1333 194° South 137 158 1,000 -700 Descending New York TRACON

Login

Don't have an account? Register now (free) for customized features, flight alerts, and more!